sensor_id;sensor_type;location;lat;lon;timestamp;P1;durP1;ratioP1;P2;durP2;ratioP2
18905;SDS011;9585;51.018;4.282;2023-04-22T00:00:28;14.23;;;12.55;;
18905;SDS011;9585;51.018;4.282;2023-04-22T00:02:57;14.20;;;12.63;;
18905;SDS011;9585;51.018;4.282;2023-04-22T00:05:27;13.57;;;12.15;;
18905;SDS011;9585;51.018;4.282;2023-04-22T00:07:54;14.27;;;11.93;;
18905;SDS011;9585;51.018;4.282;2023-04-22T00:10:22;13.00;;;11.70;;
18905;SDS011;9585;51.018;4.282;2023-04-22T00:12:49;12.35;;;11.15;;
18905;SDS011;9585;51.018;4.282;2023-04-22T00:15:17;13.50;;;12.10;;
18905;SDS011;9585;51.018;4.282;2023-04-22T00:17:46;13.10;;;11.70;;
18905;SDS011;9585;51.018;4.282;2023-04-22T00:20:13;12.15;;;10.85;;
18905;SDS011;9585;51.018;4.282;2023-04-22T00:22:42;12.07;;;10.77;;
18905;SDS011;9585;51.018;4.282;2023-04-22T00:25:09;11.77;;;10.48;;
18905;SDS011;9585;51.018;4.282;2023-04-22T00:27:36;13.65;;;12.00;;
18905;SDS011;9585;51.018;4.282;2023-04-22T00:30:04;14.82;;;12.77;;
18905;SDS011;9585;51.018;4.282;2023-04-22T00:32:32;12.82;;;11.45;;
18905;SDS011;9585;51.018;4.282;2023-04-22T00:34:59;12.70;;;11.32;;
18905;SDS011;9585;51.018;4.282;2023-04-22T00:37:27;12.52;;;10.15;;
18905;SDS011;9585;51.018;4.282;2023-04-22T00:39:56;11.35;;;10.15;;
18905;SDS011;9585;51.018;4.282;2023-04-22T00:42:23;11.23;;;10.05;;
18905;SDS011;9585;51.018;4.282;2023-04-22T00:44:51;11.88;;;10.48;;
18905;SDS011;9585;51.018;4.282;2023-04-22T00:47:19;12.75;;;11.25;;
18905;SDS011;9585;51.018;4.282;2023-04-22T00:49:50;11.68;;;10.48;;
18905;SDS011;9585;51.018;4.282;2023-04-22T00:52:18;11.70;;;10.50;;
18905;SDS011;9585;51.018;4.282;2023-04-22T00:54:46;12.73;;;11.43;;
18905;SDS011;9585;51.018;4.282;2023-04-22T00:57:15;11.60;;;10.40;;
18905;SDS011;9585;51.018;4.282;2023-04-22T00:59:43;12.77;;;11.40;;
18905;SDS011;9585;51.018;4.282;2023-04-22T01:02:12;12.20;;;10.98;;
18905;SDS011;9585;51.018;4.282;2023-04-22T01:04:39;12.38;;;11.07;;
18905;SDS011;9585;51.018;4.282;2023-04-22T01:07:07;13.90;;;12.18;;
18905;SDS011;9585;51.018;4.282;2023-04-22T01:09:34;13.07;;;11.70;;
18905;SDS011;9585;51.018;4.282;2023-04-22T01:12:04;14.77;;;12.55;;
18905;SDS011;9585;51.018;4.282;2023-04-22T01:14:33;13.45;;;11.90;;
18905;SDS011;9585;51.018;4.282;2023-04-22T01:17:00;12.38;;;11.07;;
18905;SDS011;9585;51.018;4.282;2023-04-22T01:19:28;12.57;;;11.27;;
18905;SDS011;9585;51.018;4.282;2023-04-22T01:21:57;13.38;;;11.90;;
18905;SDS011;9585;51.018;4.282;2023-04-22T01:24:28;13.18;;;11.77;;
18905;SDS011;9585;51.018;4.282;2023-04-22T01:26:55;11.55;;;10.35;;
18905;SDS011;9585;51.018;4.282;2023-04-22T01:29:22;12.60;;;11.30;;
18905;SDS011;9585;51.018;4.282;2023-04-22T01:31:50;13.20;;;11.75;;
18905;SDS011;9585;51.018;4.282;2023-04-22T01:34:18;12.25;;;10.40;;
18905;SDS011;9585;51.018;4.282;2023-04-22T01:36:45;12.52;;;11.23;;
18905;SDS011;9585;51.018;4.282;2023-04-22T01:39:13;12.27;;;10.90;;
18905;SDS011;9585;51.018;4.282;2023-04-22T01:41:41;14.73;;;11.73;;
18905;SDS011;9585;51.018;4.282;2023-04-22T01:44:09;13.57;;;11.77;;
18905;SDS011;9585;51.018;4.282;2023-04-22T01:46:36;17.08;;;14.02;;
18905;SDS011;9585;51.018;4.282;2023-04-22T01:49:04;15.20;;;13.13;;
18905;SDS011;9585;51.018;4.282;2023-04-22T01:51:31;14.93;;;12.90;;
18905;SDS011;9585;51.018;4.282;2023-04-22T01:53:58;14.32;;;12.77;;
18905;SDS011;9585;51.018;4.282;2023-04-22T01:56:28;13.85;;;12.05;;
18905;SDS011;9585;51.018;4.282;2023-04-22T01:58:56;15.05;;;12.93;;
18905;SDS011;9585;51.018;4.282;2023-04-22T02:01:24;16.02;;;13.38;;
18905;SDS011;9585;51.018;4.282;2023-04-22T02:03:51;17.10;;;14.27;;
18905;SDS011;9585;51.018;4.282;2023-04-22T02:06:18;14.23;;;12.63;;
18905;SDS011;9585;51.018;4.282;2023-04-22T02:08:46;15.52;;;12.90;;
18905;SDS011;9585;51.018;4.282;2023-04-22T02:11:13;15.35;;;12.68;;
18905;SDS011;9585;51.018;4.282;2023-04-22T02:13:40;14.55;;;12.15;;
18905;SDS011;9585;51.018;4.282;2023-04-22T02:16:09;13.23;;;11.82;;
18905;SDS011;9585;51.018;4.282;2023-04-22T02:18:36;13.18;;;11.48;;
18905;SDS011;9585;51.018;4.282;2023-04-22T02:21:04;14.13;;;12.00;;
18905;SDS011;9585;51.018;4.282;2023-04-22T02:23:31;13.20;;;11.43;;
18905;SDS011;9585;51.018;4.282;2023-04-22T02:25:58;13.32;;;11.50;;
18905;SDS011;9585;51.018;4.282;2023-04-22T02:28:27;15.15;;;12.43;;
18905;SDS011;9585;51.018;4.282;2023-04-22T02:30:54;15.20;;;12.98;;
18905;SDS011;9585;51.018;4.282;2023-04-22T02:33:23;14.23;;;12.55;;
18905;SDS011;9585;51.018;4.282;2023-04-22T02:35:50;14.50;;;12.68;;
18905;SDS011;9585;51.018;4.282;2023-04-22T02:38:18;16.85;;;13.85;;
18905;SDS011;9585;51.018;4.282;2023-04-22T02:40:45;14.82;;;12.95;;
18905;SDS011;9585;51.018;4.282;2023-04-22T02:43:13;13.43;;;12.02;;
18905;SDS011;9585;51.018;4.282;2023-04-22T02:45:40;13.25;;;11.43;;
18905;SDS011;9585;51.018;4.282;2023-04-22T02:48:07;15.13;;;13.10;;
18905;SDS011;9585;51.018;4.282;2023-04-22T02:50:36;14.45;;;12.27;;
18905;SDS011;9585;51.018;4.282;2023-04-22T02:53:04;13.57;;;11.93;;
18905;SDS011;9585;51.018;4.282;2023-04-22T02:55:31;14.68;;;13.07;;
18905;SDS011;9585;51.018;4.282;2023-04-22T02:57:58;13.70;;;12.10;;
18905;SDS011;9585;51.018;4.282;2023-04-22T03:00:26;15.07;;;12.65;;
18905;SDS011;9585;51.018;4.282;2023-04-22T03:02:53;14.18;;;12.32;;
18905;SDS011;9585;51.018;4.282;2023-04-22T03:05:21;13.88;;;12.35;;
18905;SDS011;9585;51.018;4.282;2023-04-22T03:07:50;15.40;;;13.00;;
18905;SDS011;9585;51.018;4.282;2023-04-22T03:10:17;14.40;;;12.52;;
18905;SDS011;9585;51.018;4.282;2023-04-22T03:12:45;13.98;;;11.48;;
18905;SDS011;9585;51.018;4.282;2023-04-22T03:15:13;13.25;;;11.85;;
18905;SDS011;9585;51.018;4.282;2023-04-22T03:17:40;12.85;;;11.45;;
18905;SDS011;9585;51.018;4.282;2023-04-22T03:20:08;14.05;;;12.45;;
18905;SDS011;9585;51.018;4.282;2023-04-22T03:22:36;14.45;;;11.80;;
18905;SDS011;9585;51.018;4.282;2023-04-22T03:25:05;14.85;;;12.27;;
18905;SDS011;9585;51.018;4.282;2023-04-22T03:27:33;13.20;;;11.80;;
18905;SDS011;9585;51.018;4.282;2023-04-22T03:30:00;13.27;;;11.85;;
18905;SDS011;9585;51.018;4.282;2023-04-22T03:32:28;15.35;;;13.52;;
18905;SDS011;9585;51.018;4.282;2023-04-22T03:34:55;15.55;;;13.85;;
18905;SDS011;9585;51.018;4.282;2023-04-22T03:37:22;13.73;;;12.32;;
18905;SDS011;9585;51.018;4.282;2023-04-22T03:39:50;15.25;;;13.23;;
18905;SDS011;9585;51.018;4.282;2023-04-22T03:42:19;16.38;;;14.60;;
18905;SDS011;9585;51.018;4.282;2023-04-22T03:44:46;14.90;;;13.27;;
18905;SDS011;9585;51.018;4.282;2023-04-22T03:47:13;14.25;;;12.48;;
18905;SDS011;9585;51.018;4.282;2023-04-22T03:49:40;17.40;;;14.40;;
18905;SDS011;9585;51.018;4.282;2023-04-22T03:52:08;15.75;;;13.82;;
18905;SDS011;9585;51.018;4.282;2023-04-22T03:54:35;16.42;;;13.98;;
18905;SDS011;9585;51.018;4.282;2023-04-22T03:57:02;18.90;;;15.25;;
18905;SDS011;9585;51.018;4.282;2023-04-22T03:59:31;22.25;;;16.75;;
18905;SDS011;9585;51.018;4.282;2023-04-22T04:01:59;21.10;;;15.48;;
18905;SDS011;9585;51.018;4.282;2023-04-22T04:04:26;20.80;;;15.68;;
18905;SDS011;9585;51.018;4.282;2023-04-22T04:06:54;20.00;;;15.02;;
18905;SDS011;9585;51.018;4.282;2023-04-22T04:09:21;22.48;;;16.55;;
18905;SDS011;9585;51.018;4.282;2023-04-22T04:11:49;20.15;;;15.35;;
18905;SDS011;9585;51.018;4.282;2023-04-22T04:14:16;23.58;;;18.20;;
18905;SDS011;9585;51.018;4.282;2023-04-22T04:16:45;24.92;;;19.10;;
18905;SDS011;9585;51.018;4.282;2023-04-22T04:19:12;27.45;;;20.92;;
18905;SDS011;9585;51.018;4.282;2023-04-22T04:21:39;30.75;;;21.05;;
18905;SDS011;9585;51.018;4.282;2023-04-22T04:24:07;23.02;;;19.25;;
18905;SDS011;9585;51.018;4.282;2023-04-22T04:26:35;20.55;;;16.95;;
18905;SDS011;9585;51.018;4.282;2023-04-22T04:29:02;21.33;;;16.52;;
18905;SDS011;9585;51.018;4.282;2023-04-22T04:31:30;24.67;;;18.10;;
18905;SDS011;9585;51.018;4.282;2023-04-22T04:33:59;21.67;;;17.30;;
18905;SDS011;9585;51.018;4.282;2023-04-22T04:36:26;20.88;;;16.08;;
18905;SDS011;9585;51.018;4.282;2023-04-22T04:38:57;24.83;;;17.13;;
18905;SDS011;9585;51.018;4.282;2023-04-22T04:41:24;24.00;;;17.90;;
18905;SDS011;9585;51.018;4.282;2023-04-22T04:43:53;22.95;;;18.00;;
18905;SDS011;9585;51.018;4.282;2023-04-22T04:46:21;21.95;;;17.17;;
18905;SDS011;9585;51.018;4.282;2023-04-22T04:48:48;24.38;;;18.45;;
18905;SDS011;9585;51.018;4.282;2023-04-22T04:51:17;22.25;;;17.05;;
18905;SDS011;9585;51.018;4.282;2023-04-22T04:53:44;18.40;;;15.38;;
18905;SDS011;9585;51.018;4.282;2023-04-22T04:56:11;20.67;;;16.00;;
18905;SDS011;9585;51.018;4.282;2023-04-22T04:58:41;22.13;;;17.85;;
18905;SDS011;9585;51.018;4.282;2023-04-22T05:01:08;22.02;;;17.92;;
18905;SDS011;9585;51.018;4.282;2023-04-22T05:03:35;25.25;;;19.80;;
18905;SDS011;9585;51.018;4.282;2023-04-22T05:06:03;24.15;;;18.73;;
18905;SDS011;9585;51.018;4.282;2023-04-22T05:08:32;26.17;;;20.98;;
18905;SDS011;9585;51.018;4.282;2023-04-22T05:11:00;23.90;;;19.67;;
18905;SDS011;9585;51.018;4.282;2023-04-22T05:13:27;23.98;;;18.98;;
18905;SDS011;9585;51.018;4.282;2023-04-22T05:15:55;23.98;;;19.95;;
18905;SDS011;9585;51.018;4.282;2023-04-22T05:18:23;26.25;;;20.42;;
18905;SDS011;9585;51.018;4.282;2023-04-22T05:20:51;27.52;;;21.20;;
18905;SDS011;9585;51.018;4.282;2023-04-22T05:23:18;28.23;;;21.95;;
18905;SDS011;9585;51.018;4.282;2023-04-22T05:25:47;29.17;;;21.88;;
18905;SDS011;9585;51.018;4.282;2023-04-22T05:28:14;27.23;;;21.10;;
18905;SDS011;9585;51.018;4.282;2023-04-22T05:30:41;26.13;;;20.48;;
18905;SDS011;9585;51.018;4.282;2023-04-22T05:33:09;24.13;;;19.00;;
18905;SDS011;9585;51.018;4.282;2023-04-22T05:35:36;30.95;;;23.30;;
18905;SDS011;9585;51.018;4.282;2023-04-22T05:38:03;27.15;;;20.98;;
18905;SDS011;9585;51.018;4.282;2023-04-22T05:40:31;28.77;;;22.00;;
18905;SDS011;9585;51.018;4.282;2023-04-22T05:42:59;27.02;;;21.40;;
18905;SDS011;9585;51.018;4.282;2023-04-22T05:45:26;27.38;;;21.05;;
18905;SDS011;9585;51.018;4.282;2023-04-22T05:47:54;29.63;;;22.02;;
18905;SDS011;9585;51.018;4.282;2023-04-22T05:50:21;30.25;;;22.25;;
18905;SDS011;9585;51.018;4.282;2023-04-22T05:52:48;27.75;;;22.23;;
18905;SDS011;9585;51.018;4.282;2023-04-22T05:55:16;26.17;;;19.92;;
18905;SDS011;9585;51.018;4.282;2023-04-22T05:57:43;22.75;;;19.58;;
18905;SDS011;9585;51.018;4.282;2023-04-22T06:00:13;28.80;;;22.50;;
18905;SDS011;9585;51.018;4.282;2023-04-22T06:02:41;27.23;;;21.67;;
18905;SDS011;9585;51.018;4.282;2023-04-22T06:05:08;27.67;;;22.23;;
18905;SDS011;9585;51.018;4.282;2023-04-22T06:07:36;25.63;;;20.98;;
18905;SDS011;9585;51.018;4.282;2023-04-22T06:10:03;22.88;;;18.70;;
18905;SDS011;9585;51.018;4.282;2023-04-22T06:12:31;21.67;;;18.52;;
18905;SDS011;9585;51.018;4.282;2023-04-22T06:14:59;23.13;;;19.13;;
18905;SDS011;9585;51.018;4.282;2023-04-22T06:17:28;20.98;;;18.02;;
18905;SDS011;9585;51.018;4.282;2023-04-22T06:19:55;20.27;;;17.02;;
18905;SDS011;9585;51.018;4.282;2023-04-22T06:22:22;17.55;;;15.70;;
18905;SDS011;9585;51.018;4.282;2023-04-22T06:24:50;19.33;;;16.75;;
18905;SDS011;9585;51.018;4.282;2023-04-22T06:27:17;18.92;;;16.17;;
18905;SDS011;9585;51.018;4.282;2023-04-22T06:29:44;20.27;;;17.15;;
18905;SDS011;9585;51.018;4.282;2023-04-22T06:32:12;19.80;;;16.83;;
18905;SDS011;9585;51.018;4.282;2023-04-22T06:34:41;18.13;;;16.10;;
18905;SDS011;9585;51.018;4.282;2023-04-22T06:37:08;20.98;;;17.60;;
18905;SDS011;9585;51.018;4.282;2023-04-22T06:39:35;20.35;;;18.23;;
18905;SDS011;9585;51.018;4.282;2023-04-22T06:42:02;18.65;;;16.67;;
18905;SDS011;9585;51.018;4.282;2023-04-22T06:44:33;19.83;;;17.13;;
18905;SDS011;9585;51.018;4.282;2023-04-22T06:47:00;19.48;;;16.65;;
18905;SDS011;9585;51.018;4.282;2023-04-22T06:49:28;19.80;;;17.02;;
18905;SDS011;9585;51.018;4.282;2023-04-22T06:51:57;20.98;;;17.42;;
18905;SDS011;9585;51.018;4.282;2023-04-22T06:54:24;20.10;;;17.67;;
18905;SDS011;9585;51.018;4.282;2023-04-22T06:56:51;20.15;;;17.50;;
18905;SDS011;9585;51.018;4.282;2023-04-22T06:59:20;21.60;;;17.80;;
18905;SDS011;9585;51.018;4.282;2023-04-22T07:01:47;20.55;;;18.02;;
18905;SDS011;9585;51.018;4.282;2023-04-22T07:04:14;22.60;;;18.25;;
18905;SDS011;9585;51.018;4.282;2023-04-22T07:06:41;21.25;;;17.90;;
18905;SDS011;9585;51.018;4.282;2023-04-22T07:09:10;20.25;;;17.02;;
18905;SDS011;9585;51.018;4.282;2023-04-22T07:11:38;21.52;;;17.92;;
18905;SDS011;9585;51.018;4.282;2023-04-22T07:14:05;21.15;;;18.33;;
18905;SDS011;9585;51.018;4.282;2023-04-22T07:16:32;21.10;;;16.80;;
18905;SDS011;9585;51.018;4.282;2023-04-22T07:18:59;19.08;;;16.63;;
18905;SDS011;9585;51.018;4.282;2023-04-22T07:21:27;20.55;;;16.95;;
18905;SDS011;9585;51.018;4.282;2023-04-22T07:23:54;19.75;;;17.55;;
18905;SDS011;9585;51.018;4.282;2023-04-22T07:26:22;18.98;;;16.70;;
18905;SDS011;9585;51.018;4.282;2023-04-22T07:28:50;19.83;;;17.15;;
18905;SDS011;9585;51.018;4.282;2023-04-22T07:31:17;20.58;;;17.40;;
18905;SDS011;9585;51.018;4.282;2023-04-22T07:33:44;18.95;;;16.08;;
18905;SDS011;9585;51.018;4.282;2023-04-22T07:36:11;18.48;;;15.77;;
18905;SDS011;9585;51.018;4.282;2023-04-22T07:38:39;20.98;;;17.13;;
18905;SDS011;9585;51.018;4.282;2023-04-22T07:41:06;18.42;;;16.35;;
18905;SDS011;9585;51.018;4.282;2023-04-22T07:43:35;19.35;;;16.50;;
18905;SDS011;9585;51.018;4.282;2023-04-22T07:46:02;17.50;;;15.00;;
18905;SDS011;9585;51.018;4.282;2023-04-22T07:48:30;18.80;;;16.02;;
18905;SDS011;9585;51.018;4.282;2023-04-22T07:50:57;18.70;;;16.70;;
18905;SDS011;9585;51.018;4.282;2023-04-22T07:53:24;18.00;;;15.70;;
18905;SDS011;9585;51.018;4.282;2023-04-22T07:55:52;20.42;;;16.05;;
18905;SDS011;9585;51.018;4.282;2023-04-22T07:58:19;19.55;;;16.63;;
18905;SDS011;9585;51.018;4.282;2023-04-22T08:00:48;19.25;;;16.60;;
18905;SDS011;9585;51.018;4.282;2023-04-22T08:03:15;19.52;;;16.27;;
18905;SDS011;9585;51.018;4.282;2023-04-22T08:05:42;18.90;;;16.55;;
18905;SDS011;9585;51.018;4.282;2023-04-22T08:08:10;17.67;;;15.65;;
18905;SDS011;9585;51.018;4.282;2023-04-22T08:10:37;17.85;;;15.95;;
18905;SDS011;9585;51.018;4.282;2023-04-22T08:13:04;17.25;;;14.63;;
18905;SDS011;9585;51.018;4.282;2023-04-22T08:15:32;19.00;;;14.90;;
18905;SDS011;9585;51.018;4.282;2023-04-22T08:18:00;16.40;;;14.00;;
18905;SDS011;9585;51.018;4.282;2023-04-22T08:20:28;15.98;;;12.10;;
18905;SDS011;9585;51.018;4.282;2023-04-22T08:22:55;14.38;;;12.88;;
18905;SDS011;9585;51.018;4.282;2023-04-22T08:25:24;14.20;;;12.38;;
18905;SDS011;9585;51.018;4.282;2023-04-22T08:27:52;14.20;;;12.70;;
18905;SDS011;9585;51.018;4.282;2023-04-22T08:30:19;12.88;;;11.57;;
18905;SDS011;9585;51.018;4.282;2023-04-22T08:32:49;14.23;;;12.23;;
18905;SDS011;9585;51.018;4.282;2023-04-22T08:35:19;12.88;;;11.57;;
18905;SDS011;9585;51.018;4.282;2023-04-22T08:37:46;13.50;;;12.10;;
18905;SDS011;9585;51.018;4.282;2023-04-22T08:40:13;13.35;;;11.95;;
18905;SDS011;9585;51.018;4.282;2023-04-22T08:42:41;13.32;;;11.93;;
18905;SDS011;9585;51.018;4.282;2023-04-22T08:45:10;12.73;;;11.30;;
18905;SDS011;9585;51.018;4.282;2023-04-22T08:47:38;13.65;;;12.23;;
18905;SDS011;9585;51.018;4.282;2023-04-22T08:50:07;10.98;;;9.85;;
18905;SDS011;9585;51.018;4.282;2023-04-22T08:52:36;12.65;;;11.35;;
18905;SDS011;9585;51.018;4.282;2023-04-22T08:55:04;11.75;;;10.65;;
18905;SDS011;9585;51.018;4.282;2023-04-22T08:57:32;12.23;;;10.93;;
18905;SDS011;9585;51.018;4.282;2023-04-22T09:00:01;12.10;;;10.90;;
18905;SDS011;9585;51.018;4.282;2023-04-22T09:02:29;11.90;;;10.70;;
18905;SDS011;9585;51.018;4.282;2023-04-22T09:04:58;11.52;;;9.88;;
18905;SDS011;9585;51.018;4.282;2023-04-22T09:07:29;10.55;;;9.45;;
18905;SDS011;9585;51.018;4.282;2023-04-22T09:09:58;10.90;;;9.80;;
18905;SDS011;9585;51.018;4.282;2023-04-22T09:12:25;12.18;;;10.98;;
18905;SDS011;9585;51.018;4.282;2023-04-22T09:14:53;15.40;;;12.35;;
18905;SDS011;9585;51.018;4.282;2023-04-22T09:17:28;16.48;;;12.50;;
18905;SDS011;9585;51.018;4.282;2023-04-22T09:19:57;11.85;;;10.57;;
18905;SDS011;9585;51.018;4.282;2023-04-22T09:22:25;11.95;;;10.65;;
18905;SDS011;9585;51.018;4.282;2023-04-22T09:24:52;11.25;;;10.15;;
18905;SDS011;9585;51.018;4.282;2023-04-22T09:27:23;12.60;;;11.30;;
18905;SDS011;9585;51.018;4.282;2023-04-22T09:29:51;13.30;;;11.90;;
18905;SDS011;9585;51.018;4.282;2023-04-22T09:32:18;13.05;;;11.70;;
18905;SDS011;9585;51.018;4.282;2023-04-22T09:34:47;12.88;;;11.43;;
18905;SDS011;9585;51.018;4.282;2023-04-22T09:37:17;14.35;;;12.85;;
18905;SDS011;9585;51.018;4.282;2023-04-22T09:39:48;13.55;;;12.02;;
18905;SDS011;9585;51.018;4.282;2023-04-22T09:42:16;14.20;;;12.70;;
18905;SDS011;9585;51.018;4.282;2023-04-22T09:44:48;13.43;;;12.02;;
18905;SDS011;9585;51.018;4.282;2023-04-22T09:47:17;13.32;;;11.48;;
18905;SDS011;9585;51.018;4.282;2023-04-22T09:49:45;12.85;;;11.05;;
18905;SDS011;9585;51.018;4.282;2023-04-22T09:52:19;42.78;;;17.90;;
18905;SDS011;9585;51.018;4.282;2023-04-22T09:54:49;26.88;;;14.43;;
18905;SDS011;9585;51.018;4.282;2023-04-22T09:57:17;16.65;;;13.57;;
18905;SDS011;9585;51.018;4.282;2023-04-22T09:59:46;15.23;;;13.63;;
18905;SDS011;9585;51.018;4.282;2023-04-22T10:02:17;16.05;;;13.88;;
18905;SDS011;9585;51.018;4.282;2023-04-22T10:04:45;14.48;;;12.50;;
18905;SDS011;9585;51.018;4.282;2023-04-22T10:07:13;16.67;;;14.88;;
18905;SDS011;9585;51.018;4.282;2023-04-22T10:09:41;17.15;;;14.63;;
18905;SDS011;9585;51.018;4.282;2023-04-22T10:12:09;16.77;;;14.40;;
18905;SDS011;9585;51.018;4.282;2023-04-22T10:14:37;20.58;;;16.70;;
18905;SDS011;9585;51.018;4.282;2023-04-22T10:17:06;16.90;;;14.85;;
18905;SDS011;9585;51.018;4.282;2023-04-22T10:19:34;16.10;;;14.40;;
18905;SDS011;9585;51.018;4.282;2023-04-22T10:22:03;20.88;;;16.42;;
18905;SDS011;9585;51.018;4.282;2023-04-22T10:24:33;18.77;;;16.42;;
18905;SDS011;9585;51.018;4.282;2023-04-22T10:27:02;18.08;;;15.95;;
18905;SDS011;9585;51.018;4.282;2023-04-22T10:29:35;19.50;;;15.50;;
18905;SDS011;9585;51.018;4.282;2023-04-22T10:32:04;21.00;;;16.83;;
18905;SDS011;9585;51.018;4.282;2023-04-22T10:35:05;19.50;;;16.23;;
18905;SDS011;9585;51.018;4.282;2023-04-22T10:37:34;18.13;;;15.32;;
18905;SDS011;9585;51.018;4.282;2023-04-22T10:40:06;18.42;;;15.35;;
18905;SDS011;9585;51.018;4.282;2023-04-22T10:42:36;17.13;;;15.25;;
18905;SDS011;9585;51.018;4.282;2023-04-22T10:45:05;19.63;;;16.60;;
18905;SDS011;9585;51.018;4.282;2023-04-22T10:47:37;19.00;;;15.93;;
18905;SDS011;9585;51.018;4.282;2023-04-22T10:50:15;18.17;;;15.48;;
18905;SDS011;9585;51.018;4.282;2023-04-22T10:52:48;20.15;;;15.73;;
18905;SDS011;9585;51.018;4.282;2023-04-22T10:55:17;19.35;;;15.68;;
18905;SDS011;9585;51.018;4.282;2023-04-22T10:57:46;18.48;;;15.90;;
18905;SDS011;9585;51.018;4.282;2023-04-22T11:00:18;17.80;;;14.75;;
18905;SDS011;9585;51.018;4.282;2023-04-22T11:02:50;18.25;;;15.60;;
18905;SDS011;9585;51.018;4.282;2023-04-22T11:05:22;17.83;;;15.43;;
18905;SDS011;9585;51.018;4.282;2023-04-22T11:07:52;18.48;;;15.45;;
18905;SDS011;9585;51.018;4.282;2023-04-22T11:10:30;16.75;;;14.95;;
18905;SDS011;9585;51.018;4.282;2023-04-22T11:13:01;17.65;;;15.73;;
18905;SDS011;9585;51.018;4.282;2023-04-22T11:15:31;18.35;;;15.90;;
18905;SDS011;9585;51.018;4.282;2023-04-22T11:18:00;18.15;;;16.13;;
18905;SDS011;9585;51.018;4.282;2023-04-22T11:20:32;18.80;;;16.02;;
18905;SDS011;9585;51.018;4.282;2023-04-22T11:23:01;17.40;;;15.60;;
18905;SDS011;9585;51.018;4.282;2023-04-22T11:25:29;18.45;;;16.48;;
18905;SDS011;9585;51.018;4.282;2023-04-22T11:27:57;20.00;;;17.25;;
18905;SDS011;9585;51.018;4.282;2023-04-22T11:30:25;18.88;;;16.88;;
18905;SDS011;9585;51.018;4.282;2023-04-22T11:32:56;20.80;;;17.30;;
18905;SDS011;9585;51.018;4.282;2023-04-22T11:35:25;20.00;;;17.40;;
18905;SDS011;9585;51.018;4.282;2023-04-22T11:37:58;19.85;;;17.48;;
18905;SDS011;9585;51.018;4.282;2023-04-22T11:40:28;21.00;;;17.80;;
18905;SDS011;9585;51.018;4.282;2023-04-22T11:42:57;21.80;;;18.80;;
18905;SDS011;9585;51.018;4.282;2023-04-22T11:45:27;20.25;;;17.95;;
18905;SDS011;9585;51.018;4.282;2023-04-22T11:47:56;21.00;;;18.15;;
18905;SDS011;9585;51.018;4.282;2023-04-22T11:50:25;20.27;;;16.95;;
18905;SDS011;9585;51.018;4.282;2023-04-22T11:52:55;20.27;;;17.80;;
18905;SDS011;9585;51.018;4.282;2023-04-22T11:55:26;20.52;;;17.45;;
18905;SDS011;9585;51.018;4.282;2023-04-22T11:57:56;19.77;;;17.10;;
18905;SDS011;9585;51.018;4.282;2023-04-22T12:00:27;20.00;;;17.23;;
18905;SDS011;9585;51.018;4.282;2023-04-22T12:02:58;21.05;;;17.92;;
18905;SDS011;9585;51.018;4.282;2023-04-22T12:05:36;19.35;;;16.90;;
18905;SDS011;9585;51.018;4.282;2023-04-22T12:08:07;20.58;;;17.38;;
18905;SDS011;9585;51.018;4.282;2023-04-22T12:10:39;21.20;;;17.30;;
18905;SDS011;9585;51.018;4.282;2023-04-22T12:13:07;17.08;;;15.18;;
18905;SDS011;9585;51.018;4.282;2023-04-22T12:15:38;17.70;;;15.55;;
18905;SDS011;9585;51.018;4.282;2023-04-22T12:18:07;18.10;;;15.80;;
18905;SDS011;9585;51.018;4.282;2023-04-22T12:20:37;18.73;;;16.10;;
18905;SDS011;9585;51.018;4.282;2023-04-22T12:23:11;22.38;;;17.60;;
18905;SDS011;9585;51.018;4.282;2023-04-22T12:25:40;18.77;;;15.88;;
18905;SDS011;9585;51.018;4.282;2023-04-22T12:28:08;16.35;;;14.63;;
18905;SDS011;9585;51.018;4.282;2023-04-22T12:30:36;19.23;;;16.75;;
18905;SDS011;9585;51.018;4.282;2023-04-22T12:33:05;20.38;;;17.13;;
18905;SDS011;9585;51.018;4.282;2023-04-22T12:35:33;17.60;;;15.45;;
18905;SDS011;9585;51.018;4.282;2023-04-22T12:38:01;20.35;;;17.65;;
18905;SDS011;9585;51.018;4.282;2023-04-22T12:40:30;19.67;;;17.48;;
18905;SDS011;9585;51.018;4.282;2023-04-22T12:42:57;18.67;;;16.67;;
18905;SDS011;9585;51.018;4.282;2023-04-22T12:45:25;21.85;;;18.83;;
18905;SDS011;9585;51.018;4.282;2023-04-22T12:47:52;19.90;;;17.42;;
18905;SDS011;9585;51.018;4.282;2023-04-22T12:50:20;19.73;;;16.63;;
18905;SDS011;9585;51.018;4.282;2023-04-22T12:52:48;20.90;;;17.92;;
18905;SDS011;9585;51.018;4.282;2023-04-22T12:55:15;20.15;;;17.98;;
18905;SDS011;9585;51.018;4.282;2023-04-22T12:57:46;20.42;;;18.25;;
18905;SDS011;9585;51.018;4.282;2023-04-22T13:00:15;21.48;;;18.55;;
18905;SDS011;9585;51.018;4.282;2023-04-22T13:02:43;22.02;;;19.02;;
18905;SDS011;9585;51.018;4.282;2023-04-22T13:05:11;19.30;;;17.17;;
18905;SDS011;9585;51.018;4.282;2023-04-22T13:07:39;20.02;;;17.33;;
18905;SDS011;9585;51.018;4.282;2023-04-22T13:10:08;20.58;;;18.13;;
18905;SDS011;9585;51.018;4.282;2023-04-22T13:12:36;18.80;;;16.20;;
18905;SDS011;9585;51.018;4.282;2023-04-22T13:15:05;19.85;;;16.98;;
18905;SDS011;9585;51.018;4.282;2023-04-22T13:17:34;19.27;;;17.13;;
18905;SDS011;9585;51.018;4.282;2023-04-22T13:20:02;17.92;;;15.55;;
18905;SDS011;9585;51.018;4.282;2023-04-22T13:22:31;17.25;;;14.50;;
18905;SDS011;9585;51.018;4.282;2023-04-22T13:24:59;16.42;;;14.73;;
18905;SDS011;9585;51.018;4.282;2023-04-22T13:27:26;16.83;;;14.90;;
18905;SDS011;9585;51.018;4.282;2023-04-22T13:29:54;19.08;;;15.75;;
18905;SDS011;9585;51.018;4.282;2023-04-22T13:32:23;17.10;;;15.18;;
18905;SDS011;9585;51.018;4.282;2023-04-22T13:34:50;16.08;;;14.48;;
18905;SDS011;9585;51.018;4.282;2023-04-22T13:37:18;16.75;;;14.68;;
18905;SDS011;9585;51.018;4.282;2023-04-22T13:39:46;15.95;;;13.88;;
18905;SDS011;9585;51.018;4.282;2023-04-22T13:42:13;16.85;;;14.98;;
18905;SDS011;9585;51.018;4.282;2023-04-22T13:44:41;18.30;;;16.05;;
18905;SDS011;9585;51.018;4.282;2023-04-22T13:47:09;17.33;;;15.52;;
18905;SDS011;9585;51.018;4.282;2023-04-22T13:49:38;17.45;;;15.23;;
18905;SDS011;9585;51.018;4.282;2023-04-22T13:52:06;18.10;;;15.55;;
18905;SDS011;9585;51.018;4.282;2023-04-22T13:54:33;20.23;;;16.27;;
18905;SDS011;9585;51.018;4.282;2023-04-22T13:57:01;18.77;;;16.77;;
18905;SDS011;9585;51.018;4.282;2023-04-22T13:59:29;18.35;;;15.90;;
18905;SDS011;9585;51.018;4.282;2023-04-22T14:01:57;19.05;;;16.98;;
18905;SDS011;9585;51.018;4.282;2023-04-22T14:04:24;20.48;;;17.63;;
18905;SDS011;9585;51.018;4.282;2023-04-22T14:06:53;20.73;;;16.88;;
18905;SDS011;9585;51.018;4.282;2023-04-22T14:09:21;19.88;;;16.83;;
18905;SDS011;9585;51.018;4.282;2023-04-22T14:11:48;21.65;;;18.15;;
18905;SDS011;9585;51.018;4.282;2023-04-22T14:14:16;23.17;;;18.83;;
18905;SDS011;9585;51.018;4.282;2023-04-22T14:16:44;24.70;;;18.88;;
18905;SDS011;9585;51.018;4.282;2023-04-22T14:19:11;24.30;;;19.65;;
18905;SDS011;9585;51.018;4.282;2023-04-22T14:21:39;26.42;;;21.02;;
18905;SDS011;9585;51.018;4.282;2023-04-22T14:24:09;24.50;;;19.48;;
18905;SDS011;9585;51.018;4.282;2023-04-22T14:26:37;29.42;;;21.92;;
18905;SDS011;9585;51.018;4.282;2023-04-22T14:29:04;30.15;;;22.35;;
18905;SDS011;9585;51.018;4.282;2023-04-22T14:31:32;30.95;;;22.67;;
18905;SDS011;9585;51.018;4.282;2023-04-22T14:34:00;34.15;;;24.48;;
18905;SDS011;9585;51.018;4.282;2023-04-22T14:36:27;32.28;;;23.55;;
18905;SDS011;9585;51.018;4.282;2023-04-22T14:38:55;33.28;;;23.88;;
18905;SDS011;9585;51.018;4.282;2023-04-22T14:41:24;29.52;;;21.65;;